sensor_id;sensor_type;location;lat;lon;timestamp;temperature;humidity
16271;DHT22;8243;49.048;8.396;2023-11-19T00:00:29;9.90;99.90
16271;DHT22;8243;49.048;8.396;2023-11-19T00:02:54;9.90;99.90
16271;DHT22;8243;49.048;8.396;2023-11-19T00:05:20;10.00;99.90
16271;DHT22;8243;49.048;8.396;2023-11-19T00:07:46;10.00;99.90
16271;DHT22;8243;49.048;8.396;2023-11-19T00:10:13;10.00;99.90
16271;DHT22;8243;49.048;8.396;2023-11-19T00:12:44;10.00;99.90
16271;DHT22;8243;49.048;8.396;2023-11-19T00:15:10;10.00;99.90
16271;DHT22;8243;49.048;8.396;2023-11-19T00:17:42;10.00;99.90
16271;DHT22;8243;49.048;8.396;2023-11-19T00:20:12;10.10;99.90
16271;DHT22;8243;49.048;8.396;2023-11-19T00:22:38;10.10;99.90
16271;DHT22;8243;49.048;8.396;2023-11-19T00:25:04;10.10;99.90
16271;DHT22;8243;49.048;8.396;2023-11-19T00:27:30;10.10;99.90
16271;DHT22;8243;49.048;8.396;2023-11-19T00:29:56;10.20;99.90
16271;DHT22;8243;49.048;8.396;2023-11-19T00:32:23;10.20;99.90
16271;DHT22;8243;49.048;8.396;2023-11-19T00:34:48;10.30;99.90
16271;DHT22;8243;49.048;8.396;2023-11-19T00:37:14;10.30;99.90
16271;DHT22;8243;49.048;8.396;2023-11-19T00:39:43;10.30;99.90
16271;DHT22;8243;49.048;8.396;2023-11-19T00:42:09;10.30;99.90
16271;DHT22;8243;49.048;8.396;2023-11-19T00:44:39;10.30;99.90
16271;DHT22;8243;49.048;8.396;2023-11-19T00:47:05;10.30;99.90
16271;DHT22;8243;49.048;8.396;2023-11-19T00:49:31;10.40;99.90
16271;DHT22;8243;49.048;8.396;2023-11-19T00:51:58;10.40;99.90
16271;DHT22;8243;49.048;8.396;2023-11-19T00:54:24;10.50;99.90
16271;DHT22;8243;49.048;8.396;2023-11-19T00:56:52;10.50;99.90
16271;DHT22;8243;49.048;8.396;2023-11-19T00:59:18;10.50;99.90
16271;DHT22;8243;49.048;8.396;2023-11-19T01:01:44;10.50;99.90
16271;DHT22;8243;49.048;8.396;2023-11-19T01:04:09;10.50;99.90
16271;DHT22;8243;49.048;8.396;2023-11-19T01:06:35;10.60;99.90
16271;DHT22;8243;49.048;8.396;2023-11-19T01:09:01;10.50;99.90
16271;DHT22;8243;49.048;8.396;2023-11-19T01:11:27;10.60;99.90
16271;DHT22;8243;49.048;8.396;2023-11-19T01:13:53;10.60;99.90
16271;DHT22;8243;49.048;8.396;2023-11-19T01:16:19;10.60;99.90
16271;DHT22;8243;49.048;8.396;2023-11-19T01:18:49;10.60;99.90
16271;DHT22;8243;49.048;8.396;2023-11-19T01:21:15;10.60;99.90
16271;DHT22;8243;49.048;8.396;2023-11-19T01:23:42;10.60;99.90
16271;DHT22;8243;49.048;8.396;2023-11-19T01:26:11;10.60;99.90
16271;DHT22;8243;49.048;8.396;2023-11-19T01:28:38;10.70;99.90
16271;DHT22;8243;49.048;8.396;2023-11-19T01:31:05;10.70;99.90
16271;DHT22;8243;49.048;8.396;2023-11-19T01:33:32;10.70;99.90
16271;DHT22;8243;49.048;8.396;2023-11-19T01:35:57;10.70;99.90
16271;DHT22;8243;49.048;8.396;2023-11-19T01:38:24;10.70;99.90
16271;DHT22;8243;49.048;8.396;2023-11-19T01:40:50;10.70;99.90
16271;DHT22;8243;49.048;8.396;2023-11-19T01:46:01;10.80;99.90
16271;DHT22;8243;49.048;8.396;2023-11-19T01:48:27;10.70;99.90
16271;DHT22;8243;49.048;8.396;2023-11-19T01:50:53;10.80;99.90
16271;DHT22;8243;49.048;8.396;2023-11-19T01:53:19;10.80;99.90
16271;DHT22;8243;49.048;8.396;2023-11-19T01:55:46;10.80;99.90
16271;DHT22;8243;49.048;8.396;2023-11-19T01:58:13;10.80;99.90
16271;DHT22;8243;49.048;8.396;2023-11-19T02:00:39;10.80;99.90
16271;DHT22;8243;49.048;8.396;2023-11-19T02:03:06;10.80;99.90
16271;DHT22;8243;49.048;8.396;2023-11-19T02:05:35;10.80;99.90
16271;DHT22;8243;49.048;8.396;2023-11-19T02:08:01;10.80;99.90
16271;DHT22;8243;49.048;8.396;2023-11-19T02:10:28;10.80;99.90
16271;DHT22;8243;49.048;8.396;2023-11-19T02:12:54;10.80;99.90
16271;DHT22;8243;49.048;8.396;2023-11-19T02:15:20;10.80;99.90
16271;DHT22;8243;49.048;8.396;2023-11-19T02:17:52;10.80;99.90
16271;DHT22;8243;49.048;8.396;2023-11-19T02:20:18;10.90;99.90
16271;DHT22;8243;49.048;8.396;2023-11-19T02:22:46;10.90;99.90
16271;DHT22;8243;49.048;8.396;2023-11-19T02:25:25;10.90;99.90
16271;DHT22;8243;49.048;8.396;2023-11-19T02:27:58;10.90;99.90
16271;DHT22;8243;49.048;8.396;2023-11-19T02:30:25;10.90;99.90
16271;DHT22;8243;49.048;8.396;2023-11-19T02:33:00;10.90;99.90
16271;DHT22;8243;49.048;8.396;2023-11-19T02:35:31;10.90;99.90
16271;DHT22;8243;49.048;8.396;2023-11-19T02:37:58;10.90;99.90
16271;DHT22;8243;49.048;8.396;2023-11-19T02:40:25;10.90;99.90
16271;DHT22;8243;49.048;8.396;2023-11-19T02:42:52;10.90;99.90
16271;DHT22;8243;49.048;8.396;2023-11-19T02:45:18;10.90;99.90
16271;DHT22;8243;49.048;8.396;2023-11-19T02:47:44;10.90;99.90
16271;DHT22;8243;49.048;8.396;2023-11-19T02:50:13;11.00;99.90
16271;DHT22;8243;49.048;8.396;2023-11-19T02:52:42;11.00;99.90
16271;DHT22;8243;49.048;8.396;2023-11-19T02:55:09;11.00;99.90
16271;DHT22;8243;49.048;8.396;2023-11-19T02:57:38;11.00;99.90
16271;DHT22;8243;49.048;8.396;2023-11-19T03:00:06;11.00;99.90
16271;DHT22;8243;49.048;8.396;2023-11-19T03:02:39;11.00;99.90
16271;DHT22;8243;49.048;8.396;2023-11-19T03:05:10;11.00;99.90
16271;DHT22;8243;49.048;8.396;2023-11-19T03:07:37;11.00;99.90
16271;DHT22;8243;49.048;8.396;2023-11-19T03:10:03;11.10;99.90
16271;DHT22;8243;49.048;8.396;2023-11-19T03:12:31;11.10;99.90
16271;DHT22;8243;49.048;8.396;2023-11-19T03:14:57;11.10;99.90
16271;DHT22;8243;49.048;8.396;2023-11-19T03:17:23;11.10;99.90
16271;DHT22;8243;49.048;8.396;2023-11-19T03:19:49;11.10;99.90
16271;DHT22;8243;49.048;8.396;2023-11-19T03:22:15;11.10;99.90
16271;DHT22;8243;49.048;8.396;2023-11-19T03:24:40;11.00;99.90
16271;DHT22;8243;49.048;8.396;2023-11-19T03:27:06;11.00;99.90
16271;DHT22;8243;49.048;8.396;2023-11-19T03:29:32;11.10;99.90
16271;DHT22;8243;49.048;8.396;2023-11-19T03:31:57;11.10;99.90
16271;DHT22;8243;49.048;8.396;2023-11-19T03:34:23;11.10;99.90
16271;DHT22;8243;49.048;8.396;2023-11-19T03:36:48;11.10;99.90
16271;DHT22;8243;49.048;8.396;2023-11-19T03:39:14;11.10;99.90
16271;DHT22;8243;49.048;8.396;2023-11-19T03:41:40;11.10;99.90
16271;DHT22;8243;49.048;8.396;2023-11-19T03:44:06;11.10;99.90
16271;DHT22;8243;49.048;8.396;2023-11-19T03:46:31;11.10;99.90
16271;DHT22;8243;49.048;8.396;2023-11-19T03:48:57;11.20;99.90
16271;DHT22;8243;49.048;8.396;2023-11-19T03:51:22;11.20;99.90
16271;DHT22;8243;49.048;8.396;2023-11-19T03:53:48;11.20;99.90
16271;DHT22;8243;49.048;8.396;2023-11-19T03:56:13;11.20;99.90
16271;DHT22;8243;49.048;8.396;2023-11-19T03:58:39;11.20;99.90
16271;DHT22;8243;49.048;8.396;2023-11-19T04:01:06;11.20;99.90
16271;DHT22;8243;49.048;8.396;2023-11-19T04:03:31;11.20;99.90
16271;DHT22;8243;49.048;8.396;2023-11-19T04:05:57;11.20;99.90
16271;DHT22;8243;49.048;8.396;2023-11-19T04:08:22;11.20;99.90
16271;DHT22;8243;49.048;8.396;2023-11-19T04:10:48;11.20;99.90
16271;DHT22;8243;49.048;8.396;2023-11-19T04:13:14;11.30;99.90
16271;DHT22;8243;49.048;8.396;2023-11-19T04:15:39;11.30;99.90
16271;DHT22;8243;49.048;8.396;2023-11-19T04:18:05;11.30;99.90
16271;DHT22;8243;49.048;8.396;2023-11-19T04:20:31;11.30;99.90
16271;DHT22;8243;49.048;8.396;2023-11-19T04:22:57;11.30;99.90
16271;DHT22;8243;49.048;8.396;2023-11-19T04:25:26;11.30;99.90
16271;DHT22;8243;49.048;8.396;2023-11-19T04:27:51;11.30;99.90
16271;DHT22;8243;49.048;8.396;2023-11-19T04:30:17;11.40;99.90
16271;DHT22;8243;49.048;8.396;2023-11-19T04:32:44;11.40;99.90
16271;DHT22;8243;49.048;8.396;2023-11-19T04:35:10;11.40;99.90
16271;DHT22;8243;49.048;8.396;2023-11-19T04:37:36;11.40;99.90
16271;DHT22;8243;49.048;8.396;2023-11-19T04:40:04;11.40;99.90
16271;DHT22;8243;49.048;8.396;2023-11-19T04:42:29;11.40;99.90
16271;DHT22;8243;49.048;8.396;2023-11-19T04:44:56;11.40;99.90
16271;DHT22;8243;49.048;8.396;2023-11-19T04:47:22;11.40;99.90
16271;DHT22;8243;49.048;8.396;2023-11-19T04:49:47;11.40;99.90
16271;DHT22;8243;49.048;8.396;2023-11-19T04:52:14;11.40;99.90
16271;DHT22;8243;49.048;8.396;2023-11-19T04:54:43;11.50;99.90
16271;DHT22;8243;49.048;8.396;2023-11-19T04:57:09;11.50;99.90
16271;DHT22;8243;49.048;8.396;2023-11-19T04:59:38;11.50;99.90
16271;DHT22;8243;49.048;8.396;2023-11-19T05:02:05;11.60;99.90
16271;DHT22;8243;49.048;8.396;2023-11-19T05:04:31;11.60;99.90
16271;DHT22;8243;49.048;8.396;2023-11-19T05:06:57;11.60;99.90
16271;DHT22;8243;49.048;8.396;2023-11-19T05:09:23;11.60;99.90
16271;DHT22;8243;49.048;8.396;2023-11-19T05:11:48;11.70;99.90
16271;DHT22;8243;49.048;8.396;2023-11-19T05:14:14;11.70;99.90
16271;DHT22;8243;49.048;8.396;2023-11-19T05:16:40;11.80;99.90
16271;DHT22;8243;49.048;8.396;2023-11-19T05:19:06;11.80;99.90
16271;DHT22;8243;49.048;8.396;2023-11-19T05:21:32;11.80;99.90
16271;DHT22;8243;49.048;8.396;2023-11-19T05:23:58;11.80;99.90
16271;DHT22;8243;49.048;8.396;2023-11-19T05:26:25;11.80;99.90
16271;DHT22;8243;49.048;8.396;2023-11-19T05:28:50;11.80;99.90
16271;DHT22;8243;49.048;8.396;2023-11-19T05:31:18;11.90;99.90
16271;DHT22;8243;49.048;8.396;2023-11-19T05:33:44;12.00;99.90
16271;DHT22;8243;49.048;8.396;2023-11-19T05:36:12;12.00;99.90
16271;DHT22;8243;49.048;8.396;2023-11-19T05:38:38;12.00;99.90
16271;DHT22;8243;49.048;8.396;2023-11-19T05:41:04;12.00;99.90
16271;DHT22;8243;49.048;8.396;2023-11-19T05:43:31;12.00;99.90
16271;DHT22;8243;49.048;8.396;2023-11-19T05:45:56;12.10;99.90
16271;DHT22;8243;49.048;8.396;2023-11-19T05:48:22;12.00;99.90
16271;DHT22;8243;49.048;8.396;2023-11-19T05:50:48;12.00;99.90
16271;DHT22;8243;49.048;8.396;2023-11-19T05:53:15;12.00;99.90
16271;DHT22;8243;49.048;8.396;2023-11-19T05:55:41;12.00;99.90
16271;DHT22;8243;49.048;8.396;2023-11-19T05:58:24;12.00;99.90
16271;DHT22;8243;49.048;8.396;2023-11-19T06:00:55;12.00;99.90
16271;DHT22;8243;49.048;8.396;2023-11-19T06:03:21;12.10;99.90
16271;DHT22;8243;49.048;8.396;2023-11-19T06:05:47;12.10;99.90
16271;DHT22;8243;49.048;8.396;2023-11-19T06:08:13;12.10;99.90
16271;DHT22;8243;49.048;8.396;2023-11-19T06:10:43;12.10;99.90
16271;DHT22;8243;49.048;8.396;2023-11-19T06:13:12;12.10;99.90
16271;DHT22;8243;49.048;8.396;2023-11-19T06:15:38;12.20;99.90
16271;DHT22;8243;49.048;8.396;2023-11-19T06:18:03;12.20;99.90
16271;DHT22;8243;49.048;8.396;2023-11-19T06:20:29;12.10;99.90
16271;DHT22;8243;49.048;8.396;2023-11-19T06:22:56;12.10;99.90
16271;DHT22;8243;49.048;8.396;2023-11-19T06:25:22;12.20;99.90
16271;DHT22;8243;49.048;8.396;2023-11-19T06:27:49;12.20;99.90
16271;DHT22;8243;49.048;8.396;2023-11-19T06:30:16;12.30;99.90
16271;DHT22;8243;49.048;8.396;2023-11-19T06:32:42;12.30;99.90
16271;DHT22;8243;49.048;8.396;2023-11-19T06:35:08;12.30;99.90
16271;DHT22;8243;49.048;8.396;2023-11-19T06:37:35;12.30;99.90
16271;DHT22;8243;49.048;8.396;2023-11-19T06:40:01;12.30;99.90
16271;DHT22;8243;49.048;8.396;2023-11-19T06:42:27;12.40;99.90
16271;DHT22;8243;49.048;8.396;2023-11-19T06:44:53;12.30;99.90
16271;DHT22;8243;49.048;8.396;2023-11-19T06:47:19;12.30;99.90
16271;DHT22;8243;49.048;8.396;2023-11-19T06:49:44;12.30;99.90
16271;DHT22;8243;49.048;8.396;2023-11-19T06:52:10;12.30;99.90
16271;DHT22;8243;49.048;8.396;2023-11-19T06:54:38;12.30;99.90
16271;DHT22;8243;49.048;8.396;2023-11-19T06:57:04;12.30;99.90
16271;DHT22;8243;49.048;8.396;2023-11-19T06:59:30;12.30;99.90
16271;DHT22;8243;49.048;8.396;2023-11-19T07:01:56;12.30;99.90
16271;DHT22;8243;49.048;8.396;2023-11-19T07:04:22;12.30;99.90
16271;DHT22;8243;49.048;8.396;2023-11-19T07:06:47;12.30;99.90
16271;DHT22;8243;49.048;8.396;2023-11-19T07:09:14;12.40;99.90
16271;DHT22;8243;49.048;8.396;2023-11-19T07:11:40;12.40;99.90
16271;DHT22;8243;49.048;8.396;2023-11-19T07:14:07;12.40;99.90
16271;DHT22;8243;49.048;8.396;2023-11-19T07:16:33;12.40;99.90
16271;DHT22;8243;49.048;8.396;2023-11-19T07:19:00;12.40;99.90
16271;DHT22;8243;49.048;8.396;2023-11-19T07:21:27;12.40;99.90
16271;DHT22;8243;49.048;8.396;2023-11-19T07:23:55;12.40;99.90
16271;DHT22;8243;49.048;8.396;2023-11-19T07:26:21;12.40;99.90
16271;DHT22;8243;49.048;8.396;2023-11-19T07:28:47;12.40;99.90
16271;DHT22;8243;49.048;8.396;2023-11-19T07:31:13;12.40;99.90
16271;DHT22;8243;49.048;8.396;2023-11-19T07:33:40;12.40;99.90
16271;DHT22;8243;49.048;8.396;2023-11-19T07:36:09;12.40;99.90
16271;DHT22;8243;49.048;8.396;2023-11-19T07:38:35;12.40;99.90
16271;DHT22;8243;49.048;8.396;2023-11-19T07:41:01;12.40;99.90
16271;DHT22;8243;49.048;8.396;2023-11-19T07:43:26;12.50;99.90
16271;DHT22;8243;49.048;8.396;2023-11-19T07:45:52;12.50;99.90
16271;DHT22;8243;49.048;8.396;2023-11-19T07:48:18;12.50;99.90
16271;DHT22;8243;49.048;8.396;2023-11-19T07:50:48;12.60;99.90
16271;DHT22;8243;49.048;8.396;2023-11-19T07:53:16;12.60;99.90
16271;DHT22;8243;49.048;8.396;2023-11-19T07:55:42;12.70;99.90
16271;DHT22;8243;49.048;8.396;2023-11-19T07:58:10;12.70;99.90
16271;DHT22;8243;49.048;8.396;2023-11-19T08:00:36;12.80;99.90
16271;DHT22;8243;49.048;8.396;2023-11-19T08:03:03;12.80;99.90
16271;DHT22;8243;49.048;8.396;2023-11-19T08:05:28;12.80;99.90
16271;DHT22;8243;49.048;8.396;2023-11-19T08:07:54;12.90;99.90
16271;DHT22;8243;49.048;8.396;2023-11-19T08:10:20;12.90;99.90
16271;DHT22;8243;49.048;8.396;2023-11-19T08:12:45;12.90;99.90
16271;DHT22;8243;49.048;8.396;2023-11-19T08:15:11;12.80;99.90
16271;DHT22;8243;49.048;8.396;2023-11-19T08:17:37;12.80;99.90
16271;DHT22;8243;49.048;8.396;2023-11-19T08:20:03;12.80;99.90
16271;DHT22;8243;49.048;8.396;2023-11-19T08:22:30;12.80;99.90
16271;DHT22;8243;49.048;8.396;2023-11-19T08:24:56;12.80;99.90
16271;DHT22;8243;49.048;8.396;2023-11-19T08:27:22;12.90;99.90
16271;DHT22;8243;49.048;8.396;2023-11-19T08:29:54;12.90;99.90
16271;DHT22;8243;49.048;8.396;2023-11-19T08:32:24;13.00;99.90
16271;DHT22;8243;49.048;8.396;2023-11-19T08:34:49;13.10;99.90
16271;DHT22;8243;49.048;8.396;2023-11-19T08:37:15;13.10;99.90
16271;DHT22;8243;49.048;8.396;2023-11-19T08:39:43;13.20;99.90
16271;DHT22;8243;49.048;8.396;2023-11-19T08:42:09;13.30;99.90
16271;DHT22;8243;49.048;8.396;2023-11-19T08:44:34;13.40;99.90
16271;DHT22;8243;49.048;8.396;2023-11-19T08:47:00;13.40;99.90
16271;DHT22;8243;49.048;8.396;2023-11-19T08:49:25;13.50;99.90
16271;DHT22;8243;49.048;8.396;2023-11-19T08:51:51;13.60;99.90
16271;DHT22;8243;49.048;8.396;2023-11-19T08:54:17;13.60;99.90
16271;DHT22;8243;49.048;8.396;2023-11-19T08:56:42;13.60;99.90
16271;DHT22;8243;49.048;8.396;2023-11-19T08:59:08;13.50;99.90
16271;DHT22;8243;49.048;8.396;2023-11-19T09:01:34;13.50;99.90
16271;DHT22;8243;49.048;8.396;2023-11-19T09:03:59;13.60;99.90
16271;DHT22;8243;49.048;8.396;2023-11-19T09:06:25;13.60;99.90
16271;DHT22;8243;49.048;8.396;2023-11-19T09:08:51;13.70;99.90
16271;DHT22;8243;49.048;8.396;2023-11-19T09:11:17;13.70;99.90
16271;DHT22;8243;49.048;8.396;2023-11-19T09:13:42;13.70;99.90
16271;DHT22;8243;49.048;8.396;2023-11-19T09:16:08;13.70;99.90
16271;DHT22;8243;49.048;8.396;2023-11-19T09:18:34;13.70;99.90
16271;DHT22;8243;49.048;8.396;2023-11-19T09:21:00;13.90;99.90
16271;DHT22;8243;49.048;8.396;2023-11-19T09:23:26;14.00;99.90
16271;DHT22;8243;49.048;8.396;2023-11-19T09:25:53;14.00;99.90
16271;DHT22;8243;49.048;8.396;2023-11-19T09:28:19;14.10;99.90
16271;DHT22;8243;49.048;8.396;2023-11-19T09:30:44;14.00;99.90
16271;DHT22;8243;49.048;8.396;2023-11-19T09:33:10;13.90;99.90
16271;DHT22;8243;49.048;8.396;2023-11-19T09:35:36;13.90;99.90
16271;DHT22;8243;49.048;8.396;2023-11-19T09:38:01;13.90;99.90
16271;DHT22;8243;49.048;8.396;2023-11-19T09:40:27;14.10;99.90
16271;DHT22;8243;49.048;8.396;2023-11-19T09:42:54;14.20;99.90
16271;DHT22;8243;49.048;8.396;2023-11-19T09:45:21;14.20;99.90
16271;DHT22;8243;49.048;8.396;2023-11-19T09:47:47;14.20;99.90
16271;DHT22;8243;49.048;8.396;2023-11-19T09:50:17;14.20;99.90
16271;DHT22;8243;49.048;8.396;2023-11-19T09:52:47;14.30;99.90
16271;DHT22;8243;49.048;8.396;2023-11-19T09:55:14;14.40;99.90
16271;DHT22;8243;49.048;8.396;2023-11-19T09:57:40;14.50;99.90
16271;DHT22;8243;49.048;8.396;2023-11-19T10:00:07;14.50;99.90
16271;DHT22;8243;49.048;8.396;2023-11-19T10:02:35;14.50;99.90
16271;DHT22;8243;49.048;8.396;2023-11-19T10:05:06;14.70;99.90
16271;DHT22;8243;49.048;8.396;2023-11-19T10:07:32;14.80;99.90
16271;DHT22;8243;49.048;8.396;2023-11-19T10:10:02;14.80;99.90
16271;DHT22;8243;49.048;8.396;2023-11-19T10:12:31;14.90;99.90
16271;DHT22;8243;49.048;8.396;2023-11-19T10:14:58;14.90;99.90
16271;DHT22;8243;49.048;8.396;2023-11-19T10:17:33;14.70;99.90
16271;DHT22;8243;49.048;8.396;2023-11-19T10:19:59;14.60;99.90
16271;DHT22;8243;49.048;8.396;2023-11-19T10:22:28;14.50;99.90
16271;DHT22;8243;49.048;8.396;2023-11-19T10:24:54;14.60;99.90
16271;DHT22;8243;49.048;8.396;2023-11-19T10:27:20;14.80;99.90
16271;DHT22;8243;49.048;8.396;2023-11-19T10:33:14;15.20;99.90
16271;DHT22;8243;49.048;8.396;2023-11-19T10:35:56;15.20;99.90
16271;DHT22;8243;49.048;8.396;2023-11-19T10:38:27;15.30;99.90
16271;DHT22;8243;49.048;8.396;2023-11-19T10:40:54;15.40;99.90
16271;DHT22;8243;49.048;8.396;2023-11-19T10:43:21;15.50;99.90
16271;DHT22;8243;49.048;8.396;2023-11-19T10:45:48;15.50;99.90
16271;DHT22;8243;49.048;8.396;2023-11-19T10:48:14;15.60;99.90
16271;DHT22;8243;49.048;8.396;2023-11-19T10:50:44;15.40;99.90
16271;DHT22;8243;49.048;8.396;2023-11-19T10:53:11;15.30;99.90
16271;DHT22;8243;49.048;8.396;2023-11-19T10:55:41;15.40;99.90
16271;DHT22;8243;49.048;8.396;2023-11-19T10:58:08;15.60;99.90
16271;DHT22;8243;49.048;8.396;2023-11-19T11:01:01;15.50;99.90
16271;DHT22;8243;49.048;8.396;2023-11-19T11:03:37;15.40;99.90
16271;DHT22;8243;49.048;8.396;2023-11-19T11:06:05;15.40;99.90
16271;DHT22;8243;49.048;8.396;2023-11-19T11:08:31;15.40;99.90
16271;DHT22;8243;49.048;8.396;2023-11-19T11:10:59;15.20;99.90
16271;DHT22;8243;49.048;8.396;2023-11-19T11:13:26;15.20;99.90
16271;DHT22;8243;49.048;8.396;2023-11-19T11:15:56;15.20;99.90
16271;DHT22;8243;49.048;8.396;2023-11-19T11:18:26;15.30;99.90
16271;DHT22;8243;49.048;8.396;2023-11-19T11:20:55;15.20;99.90
16271;DHT22;8243;49.048;8.396;2023-11-19T11:26:34;15.10;99.90
16271;DHT22;8243;49.048;8.396;2023-11-19T11:32:21;14.80;99.90
16271;DHT22;8243;49.048;8.396;2023-11-19T11:37:46;14.70;99.90
16271;DHT22;8243;49.048;8.396;2023-11-19T11:40:16;14.70;99.90
16271;DHT22;8243;49.048;8.396;2023-11-19T11:42:44;14.90;99.90
16271;DHT22;8243;49.048;8.396;2023-11-19T11:45:11;15.10;99.90
16271;DHT22;8243;49.048;8.396;2023-11-19T11:50:16;15.60;99.90
16271;DHT22;8243;49.048;8.396;2023-11-19T11:55:33;16.30;99.90
16271;DHT22;8243;49.048;8.396;2023-11-19T11:58:00;16.80;99.90
16271;DHT22;8243;49.048;8.396;2023-11-19T12:00:33;16.80;99.90
16271;DHT22;8243;49.048;8.396;2023-11-19T12:03:05;16.80;99.90
16271;DHT22;8243;49.048;8.396;2023-11-19T12:05:32;16.70;99.90
16271;DHT22;8243;49.048;8.396;2023-11-19T12:08:06;16.60;99.90
16271;DHT22;8243;49.048;8.396;2023-11-19T12:10:37;16.40;99.90
16271;DHT22;8243;49.048;8.396;2023-11-19T12:13:05;16.40;99.90
16271;DHT22;8243;49.048;8.396;2023-11-19T12:15:32;16.40;99.90
16271;DHT22;8243;49.048;8.396;2023-11-19T12:17:58;16.20;99.90
16271;DHT22;8243;49.048;8.396;2023-11-19T12:20:26;16.10;99.90
16271;DHT22;8243;49.048;8.396;2023-11-19T12:22:52;16.10;99.70
16271;DHT22;8243;49.048;8.396;2023-11-19T12:25:20;16.00;99.90
16271;DHT22;8243;49.048;8.396;2023-11-19T12:27:55;16.20;99.90
16271;DHT22;8243;49.048;8.396;2023-11-19T12:30:38;16.20;97.00
16271;DHT22;8243;49.048;8.396;2023-11-19T12:33:11;16.30;95.10
16271;DHT22;8243;49.048;8.396;2023-11-19T12:35:40;16.30;91.20
16271;DHT22;8243;49.048;8.396;2023-11-19T12:38:06;16.30;90.00
16271;DHT22;8243;49.048;8.396;2023-11-19T12:40:32;16.30;88.90
16271;DHT22;8243;49.048;8.396;2023-11-19T12:42:59;16.30;88.20
16271;DHT22;8243;49.048;8.396;2023-11-19T12:45:52;16.30;89.10
16271;DHT22;8243;49.048;8.396;2023-11-19T12:48:18;16.30;87.50
16271;DHT22;8243;49.048;8.396;2023-11-19T12:50:57;16.30;86.50
16271;DHT22;8243;49.048;8.396;2023-11-19T12:53:27;16.40;83.30
16271;DHT22;8243;49.048;8.396;2023-11-19T12:55:55;16.70;82.60
16271;DHT22;8243;49.048;8.396;2023-11-19T12:58:34;17.00;76.80
16271;DHT22;8243;49.048;8.396;2023-11-19T13:01:01;17.10;73.30
16271;DHT22;8243;49.048;8.396;2023-11-19T13:03:31;17.10;72.40
16271;DHT22;8243;49.048;8.396;2023-11-19T13:06:06;17.00;69.70
16271;DHT22;8243;49.048;8.396;2023-11-19T13:08:41;16.70;68.20
16271;DHT22;8243;49.048;8.396;2023-11-19T13:11:07;16.40;68.50
16271;DHT22;8243;49.048;8.396;2023-11-19T13:13:53;16.20;68.70
16271;DHT22;8243;49.048;8.396;2023-11-19T13:16:20;16.00;70.10
16271;DHT22;8243;49.048;8.396;2023-11-19T13:18:45;15.90;70.40
16271;DHT22;8243;49.048;8.396;2023-11-19T13:21:11;15.90;69.90
16271;DHT22;8243;49.048;8.396;2023-11-19T13:23:37;16.00;70.80
16271;DHT22;8243;49.048;8.396;2023-11-19T13:26:05;16.10;70.20
16271;DHT22;8243;49.048;8.396;2023-11-19T13:29:06;16.40;67.90
16271;DHT22;8243;49.048;8.396;2023-11-19T13:31:32;16.80;66.30
16271;DHT22;8243;49.048;8.396;2023-11-19T13:33:58;17.00;63.70
16271;DHT22;8243;49.048;8.396;2023-11-19T13:36:25;17.20;59.20
16271;DHT22;8243;49.048;8.396;2023-11-19T13:38:51;17.40;56.00
16271;DHT22;8243;49.048;8.396;2023-11-19T13:41:17;17.40;52.80
16271;DHT22;8243;49.048;8.396;2023-11-19T13:43:43;17.50;52.50
16271;DHT22;8243;49.048;8.396;2023-11-19T13:46:09;17.50;50.10
16271;DHT22;8243;49.048;8.396;2023-11-19T13:48:38;17.40;48.70
16271;DHT22;8243;49.048;8.396;2023-11-19T13:51:04;17.30;47.30
16271;DHT22;8243;49.048;8.396;2023-11-19T13:53:30;17.30;46.40
16271;DHT22;8243;49.048;8.396;2023-11-19T13:55:56;17.20;46.40
16271;DHT22;8243;49.048;8.396;2023-11-19T13:58:22;17.20;45.80
16271;DHT22;8243;49.048;8.396;2023-11-19T14:00:48;17.20;45.50
16271;DHT22;8243;49.048;8.396;2023-11-19T14:03:14;17.00;44.40
16271;DHT22;8243;49.048;8.396;2023-11-19T14:05:39;16.90;46.70
16271;DHT22;8243;49.048;8.396;2023-11-19T14:08:06;16.70;47.80
16271;DHT22;8243;49.048;8.396;2023-11-19T14:10:39;16.50;48.50
16271;DHT22;8243;49.048;8.396;2023-11-19T14:13:06;16.40;49.30
16271;DHT22;8243;49.048;8.396;2023-11-19T14:15:32;16.20;49.40
16271;DHT22;8243;49.048;8.396;2023-11-19T14:17:58;16.00;51.30
16271;DHT22;8243;49.048;8.396;2023-11-19T14:20:24;15.80;51.90
16271;DHT22;8243;49.048;8.396;2023-11-19T14:22:51;15.70;53.50
16271;DHT22;8243;49.048;8.396;2023-11-19T14:25:18;15.50;55.10
16271;DHT22;8243;49.048;8.396;2023-11-19T14:27:44;15.40;56.90
16271;DHT22;8243;49.048;8.396;2023-11-19T14:30:12;15.30;57.90
16271;DHT22;8243;49.048;8.396;2023-11-19T14:32:39;15.20;58.10
16271;DHT22;8243;49.048;8.396;2023-11-19T14:35:06;15.10;58.40
16271;DHT22;8243;49.048;8.396;2023-11-19T14:37:32;15.10;59.70
16271;DHT22;8243;49.048;8.396;2023-11-19T14:39:58;15.10;59.80
16271;DHT22;8243;49.048;8.396;2023-11-19T14:42:24;15.10;60.90
16271;DHT22;8243;49.048;8.396;2023-11-19T14:44:52;15.00;61.80
16271;DHT22;8243;49.048;8.396;2023-11-19T14:47:18;14.90;63.10
16271;DHT22;8243;49.048;8.396;2023-11-19T14:49:44;15.00;63.10
16271;DHT22;8243;49.048;8.396;2023-11-19T14:52:10;15.00;64.00
16271;DHT22;8243;49.048;8.396;2023-11-19T14:54:36;15.00;64.10
16271;DHT22;8243;49.048;8.396;2023-11-19T14:57:02;15.00;65.10
16271;DHT22;8243;49.048;8.396;2023-11-19T14:59:29;15.00;65.60
16271;DHT22;8243;49.048;8.396;2023-11-19T15:01:54;15.00;65.70
16271;DHT22;8243;49.048;8.396;2023-11-19T15:04:35;15.00;66.20
16271;DHT22;8243;49.048;8.396;2023-11-19T15:07:01;15.00;65.90
16271;DHT22;8243;49.048;8.396;2023-11-19T15:09:27;15.00;65.10
16271;DHT22;8243;49.048;8.396;2023-11-19T15:11:57;14.90;65.30
16271;DHT22;8243;49.048;8.396;2023-11-19T15:14:23;14.80;65.30
16271;DHT22;8243;49.048;8.396;2023-11-19T15:16:49;14.70;65.30
16271;DHT22;8243;49.048;8.396;2023-11-19T15:19:17;14.70;65.10
16271;DHT22;8243;49.048;8.396;2023-11-19T15:21:42;14.70;65.80
16271;DHT22;8243;49.048;8.396;2023-11-19T15:24:09;14.70;66.30
16271;DHT22;8243;49.048;8.396;2023-11-19T15:26:35;14.70;65.60
16271;DHT22;8243;49.048;8.396;2023-11-19T15:29:01;14.70;65.70
16271;DHT22;8243;49.048;8.396;2023-11-19T15:31:28;14.80;65.80
16271;DHT22;8243;49.048;8.396;2023-11-19T15:33:54;14.80;66.20
16271;DHT22;8243;49.048;8.396;2023-11-19T15:36:20;14.80;66.20
16271;DHT22;8243;49.048;8.396;2023-11-19T15:38:46;14.80;66.10
16271;DHT22;8243;49.048;8.396;2023-11-19T15:41:12;14.80;65.90
16271;DHT22;8243;49.048;8.396;2023-11-19T15:43:38;14.70;66.50
16271;DHT22;8243;49.048;8.396;2023-11-19T15:46:08;14.70;66.40
16271;DHT22;8243;49.048;8.396;2023-11-19T15:48:34;14.70;66.40
16271;DHT22;8243;49.048;8.396;2023-11-19T15:51:00;14.70;66.40
16271;DHT22;8243;49.048;8.396;2023-11-19T15:53:26;14.60;67.00
16271;DHT22;8243;49.048;8.396;2023-11-19T15:55:53;14.50;67.50
16271;DHT22;8243;49.048;8.396;2023-11-19T15:58:19;14.40;68.30
16271;DHT22;8243;49.048;8.396;2023-11-19T16:00:45;14.40;68.30
16271;DHT22;8243;49.048;8.396;2023-11-19T16:03:13;14.40;67.80
16271;DHT22;8243;49.048;8.396;2023-11-19T16:05:38;14.40;68.10
16271;DHT22;8243;49.048;8.396;2023-11-19T16:08:04;14.30;68.70